KNJM

Details ICAO KNJM
Name BOGUE MCALF
Region United States
Timezone America/New_York (UTC-5.0)
Plans Departing 0
Arriving 0
Stats Elevation 21 ft / 6 m (AMSL)
Location 34.690134° -77.029019°
Runways 1
Magnetic Variation 10.025° W
Sunrise 2017-12-16 12:10:06 UTC / 2017-12-16 07:10:06 Local
Sunset 2017-12-16 22:00:22 UTC / 2017-12-16 17:00:22 Local
Advertisement - Login to hide

Runways

ID Width Length Bearing (true) Bearing (mag) Surface Threshold Offset Overrun Length
05 96 ft / 29 m 3,999 ft / 1,219 m 40.74° 50.77° Dirt 0 ft / 0 m 150 ft / 46 m
23 96 ft / 29 m 3,999 ft / 1,219 m 220.75° 230.78° Dirt 0 ft / 0 m 150 ft / 46 m

Map

Weather


0- 5 10 15 20 25 30 35+ Temperature / ° C

Clouds and Precipitation
Forecast for 2017-12-17 00:00 UTC. Updated 2 hours ago

Ground ~20,000 ft ~40,000 ft Winds

METAR

KNJM 162157Z AUTO 25005KT 10SM CLR 07/01 A3025 RMK AO2 SLP245 T00720006 $

TAF

Not found

Frequencies

Unicom 126.45 MHz CTAF
Approach 119.35 MHz CHERRY POINT APP/DEP
Tower 126.45 MHz TWR
Approach 124.10 MHz CHERRY POINT APP/DEP
Warning: Do not use this data for real-world aviation or navigation. No guarantee of current accuracy is given.